Time;durP1;ratioP1;P1;durP2;ratioP2;P2;SDS_P1;SDS_P2;PMS_P1;PMS_P2;Temp;Humidity;BMP_temperature;BMP_pressure;BME280_temperature;BME280_humidity;BME280_pressure;Samples;Min_cycle;Max_cycle;Signal;HPM_P1;HPM_P2
2021/07/13 00:01:48;;;;;;;8.70;1.85;;;19.70;99.90;;;;;;5072704;28;20028;-74
2021/07/13 00:04:14;;;;;;;1.13;0.60;;;19.60;99.90;;;;;;5072430;28;20107;-73
2021/07/13 00:06:40;;;;;;;2.38;0.93;;;19.60;99.90;;;;;;5072542;28;20024;-73
2021/07/13 00:09:06;;;;;;;1.73;1.20;;;19.60;99.90;;;;;;5054720;28;20020;-73
2021/07/13 00:11:32;;;;;;;1.48;0.90;;;19.60;99.90;;;;;;5072744;28;20024;-73
2021/07/13 00:13:58;;;;;;;2.58;1.02;;;19.50;99.90;;;;;;5072352;28;20024;-73
2021/07/13 00:16:23;;;;;;;1.50;0.80;;;19.50;99.90;;;;;;5072074;28;20028;-73
2021/07/13 00:18:49;;;;;;;1.65;0.82;;;19.60;99.90;;;;;;5081220;28;20072;-73
2021/07/13 00:21:14;;;;;;;1.13;0.93;;;19.60;99.90;;;;;;5090584;28;20478;-73
2021/07/13 00:23:40;;;;;;;2.05;0.70;;;19.50;99.90;;;;;;5073148;28;20021;-73
2021/07/13 00:26:05;;;;;;;2.42;0.85;;;19.40;99.90;;;;;;5072343;28;20028;-73
2021/07/13 00:28:32;;;;;;;1.35;0.77;;;19.40;99.90;;;;;;5073497;28;20402;-73
2021/07/13 00:30:58;;;;;;;1.70;0.90;;;19.50;99.90;;;;;;5072396;28;20398;-73
2021/07/13 00:33:24;;;;;;;4.28;1.00;;;19.40;99.90;;;;;;5071900;28;20029;-73
2021/07/13 00:35:50;;;;;;;1.33;0.80;;;19.40;99.90;;;;;;5053947;28;20127;-73
2021/07/13 00:38:15;;;;;;;3.17;0.80;;;19.30;99.90;;;;;;5072653;28;20108;-73
2021/07/13 00:40:41;;;;;;;1.25;0.90;;;19.30;99.90;;;;;;5072348;28;20108;-74
2021/07/13 00:43:07;;;;;;;3.20;1.48;;;19.30;99.90;;;;;;5071051;28;20474;-73
2021/07/13 00:45:32;;;;;;;1.80;0.75;;;19.30;99.90;;;;;;5071685;28;20028;-73
2021/07/13 00:47:58;;;;;;;1.75;0.98;;;19.20;99.90;;;;;;5072005;28;20024;-73
2021/07/13 00:50:26;;;;;;;1.88;0.90;;;19.20;99.90;;;;;;5072594;28;20021;-73
2021/07/13 00:52:52;;;;;;;2.25;1.02;;;19.30;99.90;;;;;;5072225;28;20586;-73
2021/07/13 00:55:18;;;;;;;2.28;1.15;;;19.30;99.90;;;;;;5072202;28;20127;-73
2021/07/13 00:57:44;;;;;;;1.83;1.48;;;19.30;99.90;;;;;;5071997;28;20035;-73
2021/07/13 01:00:13;;;;;;;2.15;1.30;;;19.20;99.90;;;;;;5072877;28;20048;-73
2021/07/13 01:02:39;;;;;;;2.65;1.67;;;19.20;99.90;;;;;;5095060;28;20019;-72
2021/07/13 01:05:16;;;;;;;2.75;1.60;;;19.10;99.90;;;;;;5090542;28;20039;-73
2021/07/13 01:07:46;;;;;;;4.38;1.60;;;19.10;99.90;;;;;;5072697;28;20593;-72
2021/07/13 01:10:37;;;;;;;2.75;1.30;;;19.10;99.90;;;;;;5054276;28;20105;-73
2021/07/13 01:13:07;;;;;;;;;;;19.00;99.90;;;;;;5072785;28;20028;-72
2021/07/13 01:15:38;;;;;;;4.47;1.40;;;19.00;99.90;;;;;;5071626;28;19927;-73
2021/07/13 01:18:14;;;;;;;2.78;1.33;;;18.90;99.90;;;;;;5072364;28;20028;-72
2021/07/13 01:21:17;;;;;;;3.28;1.63;;;18.90;99.90;;;;;;5071876;28;20020;-73
2021/07/13 01:24:36;;;;;;;2.47;1.58;;;18.90;99.90;;;;;;5072206;28;20060;-73
2021/07/13 01:27:10;;;;;;;5.15;1.80;;;18.80;99.90;;;;;;4990021;28;20034;-73
2021/07/13 01:29:39;;;;;;;2.00;1.00;;;18.90;99.90;;;;;;4990611;28;20038;-73
2021/07/13 01:32:06;;;;;;;1.98;1.23;;;18.80;99.90;;;;;;5035236;28;20105;-73
2021/07/13 01:34:36;;;;;;;3.05;1.55;;;18.80;99.90;;;;;;5072343;28;20385;-73
2021/07/13 01:37:04;;;;;;;1.95;0.80;;;18.80;99.90;;;;;;5071728;28;20073;-73
2021/07/13 01:39:31;;;;;;;4.38;1.30;;;18.60;99.90;;;;;;5071727;28;20031;-73
2021/07/13 01:42:03;;;;;;;2.75;1.10;;;18.60;99.90;;;;;;5072541;28;20033;-73
2021/07/13 01:44:31;;;;;;;2.70;1.25;;;18.50;99.90;;;;;;5071850;28;20028;-73
2021/07/13 01:46:57;;;;;;;2.70;1.10;;;18.50;99.90;;;;;;5071291;28;20032;-73
2021/07/13 01:49:25;;;;;;;2.25;1.33;;;18.40;99.90;;;;;;5077097;28;20021;-73
2021/07/13 01:51:55;;;;;;;4.68;1.48;;;18.40;99.90;;;;;;5080598;28;20086;-73
2021/07/13 01:54:24;;;;;;;2.50;1.48;;;18.40;99.90;;;;;;5075169;28;20028;-73
2021/07/13 01:56:53;;;;;;;5.03;2.78;;;18.30;99.90;;;;;;5054929;28;20474;-73
2021/07/13 01:59:19;;;;;;;3.05;1.20;;;18.30;99.90;;;;;;5074100;28;20032;-73
2021/07/13 02:01:47;;;;;;;3.47;1.33;;;18.40;99.90;;;;;;5078862;28;20052;-73
2021/07/13 02:04:14;;;;;;;4.57;1.88;;;18.30;99.90;;;;;;5095735;28;20474;-72
2021/07/13 02:06:44;;;;;;;3.85;1.55;;;18.30;99.90;;;;;;5079994;28;20081;-72
2021/07/13 02:09:13;;;;;;;1.83;1.33;;;18.30;99.90;;;;;;5079663;28;20024;-72
2021/07/13 02:11:43;;;;;;;1.38;0.88;;;18.30;99.90;;;;;;5080015;28;20107;-73
2021/07/13 02:14:09;;;;;;;5.25;1.58;;;18.20;99.90;;;;;;5061061;28;20020;-73
2021/07/13 02:16:35;;;;;;;4.63;1.88;;;18.20;99.90;;;;;;5075483;28;20090;-72
2021/07/13 02:19:01;;;;;;;2.90;1.58;;;18.20;99.90;;;;;;5075240;28;20416;-72
2021/07/13 02:21:26;;;;;;;5.75;1.30;;;18.20;99.90;;;;;;5074955;28;20094;-72
2021/07/13 02:23:52;;;;;;;2.50;1.75;;;18.20;99.90;;;;;;5074765;28;20032;-72
2021/07/13 02:26:23;;;;;;;2.33;1.00;;;18.30;99.90;;;;;;5074426;28;20021;-72
2021/07/13 02:28:57;;;;;;;2.92;1.48;;;18.30;99.90;;;;;;5073291;28;20064;-73
2021/07/13 02:31:41;;;;;;;3.63;1.30;;;18.30;99.90;;;;;;5074579;28;20024;-73
2021/07/13 02:34:09;;;;;;;3.75;1.38;;;18.30;99.90;;;;;;5074335;28;20485;-73
2021/07/13 02:36:41;;;;;;;2.17;1.33;;;18.30;99.90;;;;;;5074243;28;20047;-73
2021/07/13 02:39:08;;;;;;;2.80;1.55;;;18.30;99.90;;;;;;5074298;28;20029;-73
2021/07/13 02:41:35;;;;;;;2.17;1.38;;;18.30;99.90;;;;;;5074159;28;20028;-73
2021/07/13 02:44:03;;;;;;;3.47;1.40;;;18.30;99.90;;;;;;5056215;28;20099;-73
2021/07/13 02:46:31;;;;;;;3.28;1.40;;;18.30;99.90;;;;;;5073616;28;20288;-73
2021/07/13 02:48:59;;;;;;;3.05;1.60;;;18.30;99.90;;;;;;5073743;28;20048;-73
2021/07/13 02:51:26;;;;;;;4.25;1.50;;;18.30;99.90;;;;;;5075368;28;20397;-73
2021/07/13 02:53:54;;;;;;;1.88;1.20;;;18.30;99.90;;;;;;5074280;28;20111;-73
2021/07/13 02:56:21;;;;;;;4.50;1.88;;;18.30;99.90;;;;;;5077180;28;20036;-72
2021/07/13 02:58:49;;;;;;;3.08;1.38;;;18.30;99.90;;;;;;5081958;28;20393;-72
2021/07/13 03:01:15;;;;;;;1.85;1.30;;;18.20;99.90;;;;;;5085167;28;20504;-73
2021/07/13 03:03:42;;;;;;;6.78;1.83;;;18.40;99.90;;;;;;5082554;28;20029;-73
2021/07/13 03:06:09;;;;;;;2.50;1.50;;;18.40;99.90;;;;;;5062853;28;20090;-72
2021/07/13 03:08:35;;;;;;;3.40;1.70;;;18.30;99.90;;;;;;5079522;28;20021;-72
2021/07/13 03:11:02;;;;;;;4.63;2.25;;;18.30;99.90;;;;;;5078727;28;20104;-72
2021/07/13 03:13:31;;;;;;;5.50;1.80;;;18.30;99.90;;;;;;5079599;28;20032;-74
2021/07/13 03:15:57;;;;;;;1.63;1.33;;;18.30;99.90;;;;;;5063521;28;20029;-72
2021/07/13 03:18:23;;;;;;;2.97;2.13;;;18.30;99.90;;;;;;5080052;28;20035;-73
2021/07/13 03:20:52;;;;;;;2.47;1.77;;;18.30;99.90;;;;;;5079777;28;20045;-73
2021/07/13 03:23:19;;;;;;;3.75;2.10;;;18.30;99.90;;;;;;5078387;28;20028;-73
2021/07/13 03:25:45;;;;;;;3.25;2.30;;;18.30;99.90;;;;;;5078051;28;20020;-73
2021/07/13 03:28:13;;;;;;;3.78;2.03;;;18.30;99.90;;;;;;5079662;28;20024;-73
2021/07/13 03:30:40;;;;;;;2.90;2.03;;;18.30;99.90;;;;;;5079838;28;20482;-72
2021/07/13 03:33:08;;;;;;;3.97;2.25;;;18.50;99.90;;;;;;5061118;28;20021;-73
2021/07/13 03:35:34;;;;;;;3.17;2.10;;;18.50;99.90;;;;;;5079569;28;20020;-72
2021/07/13 03:38:00;;;;;;;3.92;2.28;;;18.50;99.90;;;;;;5078796;28;20035;-73
2021/07/13 03:40:28;;;;;;;2.60;2.40;;;18.40;99.90;;;;;;5081443;28;20024;-73
2021/07/13 03:42:54;;;;;;;2.97;1.70;;;18.40;99.90;;;;;;5079357;28;20098;-72
2021/07/13 03:45:21;;;;;;;3.65;2.20;;;18.50;99.90;;;;;;5079570;28;20075;-72
2021/07/13 03:47:52;;;;;;;4.18;2.22;;;18.50;99.90;;;;;;5101396;22;20139;-73
2021/07/13 03:50:20;;;;;;;2.65;2.25;;;18.40;99.90;;;;;;5054671;28;20032;-73
2021/07/13 03:52:45;;;;;;;3.45;2.45;;;18.50;99.90;;;;;;5072818;28;20028;-72
2021/07/13 03:55:12;;;;;;;3.72;2.40;;;18.60;99.90;;;;;;5054739;28;20113;-75
2021/07/13 03:57:38;;;;;;;2.85;2.00;;;18.70;99.90;;;;;;5072703;28;20469;-73
2021/07/13 04:00:13;;;;;;;3.72;2.63;;;18.80;99.90;;;;;;5072683;28;20020;-74
2021/07/13 04:02:39;;;;;;;2.45;2.13;;;18.90;99.90;;;;;;5072576;28;20111;-72
2021/07/13 04:05:05;;;;;;;3.65;2.83;;;18.90;99.90;;;;;;5072710;28;20453;-73
2021/07/13 04:07:31;;;;;;;6.95;3.28;;;18.90;99.90;;;;;;5072613;28;20052;-73
2021/07/13 04:09:57;;;;;;;3.30;2.60;;;18.70;99.90;;;;;;5056045;28;20122;-72
2021/07/13 04:12:22;;;;;;;3.00;2.67;;;18.80;99.90;;;;;;5073387;28;20028;-72
2021/07/13 04:14:48;;;;;;;4.05;3.00;;;18.70;99.90;;;;;;5072653;28;20024;-73
2021/07/13 04:17:13;;;;;;;4.00;3.13;;;18.70;99.90;;;;;;5073561;28;20052;-72
2021/07/13 04:19:39;;;;;;;3.67;3.13;;;18.80;99.90;;;;;;5073618;28;20393;-72
2021/07/13 04:22:04;;;;;;;3.30;3.00;;;18.90;99.90;;;;;;5073170;28;20028;-73
2021/07/13 04:24:30;;;;;;;3.67;3.38;;;18.70;99.90;;;;;;5072985;28;20051;-73
2021/07/13 04:26:55;;;;;;;3.80;3.47;;;18.60;99.90;;;;;;5055003;28;20027;-73
2021/07/13 04:29:21;;;;;;;3.97;3.50;;;18.60;99.90;;;;;;5073649;28;20052;-73
2021/07/13 04:31:47;;;;;;;3.97;3.50;;;18.80;99.90;;;;;;5072762;28;20096;-72
2021/07/13 04:34:12;;;;;;;4.63;3.08;;;18.90;99.90;;;;;;5072530;28;20028;-73
2021/07/13 04:36:39;;;;;;;6.78;3.90;;;18.90;99.90;;;;;;5072785;28;20052;-73
2021/07/13 04:39:06;;;;;;;3.67;3.35;;;19.10;99.90;;;;;;5072507;28;20028;-72
2021/07/13 04:41:32;;;;;;;5.20;4.03;;;19.20;99.90;;;;;;5072693;28;20025;-72
2021/07/13 04:43:58;;;;;;;5.07;3.25;;;19.30;99.90;;;;;;5072633;28;20021;-73
2021/07/13 04:46:24;;;;;;;3.80;3.40;;;19.40;99.90;;;;;;5071941;28;20043;-73
2021/07/13 04:48:50;;;;;;;4.75;3.25;;;19.40;99.90;;;;;;5072360;28;20029;-73
2021/07/13 04:51:16;;;;;;;4.72;4.32;;;19.30;99.90;;;;;;5071727;28;20017;-72
2021/07/13 04:53:42;;;;;;;4.30;3.40;;;19.10;99.90;;;;;;5071267;28;20107;-74
2021/07/13 04:56:08;;;;;;;7.20;3.78;;;19.20;99.90;;;;;;5072436;28;20028;-72
2021/07/13 04:58:33;;;;;;;4.38;4.03;;;19.10;99.90;;;;;;5072906;28;20373;-73
2021/07/13 05:00:59;;;;;;;5.30;3.10;;;19.20;99.90;;;;;;5072394;28;20043;-73
2021/07/13 05:03:24;;;;;;;6.28;3.78;;;19.10;99.90;;;;;;5072941;28;20077;-73
2021/07/13 05:05:50;;;;;;;3.15;2.90;;;19.00;99.90;;;;;;5072624;28;20035;-73
2021/07/13 05:08:16;;;;;;;4.43;3.72;;;18.90;99.90;;;;;;5072978;28;20029;-73
2021/07/13 05:10:41;;;;;;;4.15;2.72;;;19.00;99.90;;;;;;5072484;28;20021;-73
2021/07/13 05:13:11;;;;;;;3.20;2.90;;;19.00;99.90;;;;;;5072351;28;20047;-73
2021/07/13 05:15:39;;;;;;;4.47;3.35;;;19.00;99.90;;;;;;5072099;28;20037;-72
2021/07/13 05:18:07;;;;;;;4.78;3.75;;;18.80;99.90;;;;;;5072778;28;20028;-72
2021/07/13 05:20:33;;;;;;;7.57;4.47;;;18.80;99.90;;;;;;5072989;28;20512;-74
2021/07/13 05:22:59;;;;;;;6.72;4.72;;;18.80;99.90;;;;;;5071036;28;20028;-73
2021/07/13 05:25:25;;;;;;;3.92;3.00;;;18.90;99.90;;;;;;5072557;28;20024;-73
2021/07/13 05:27:51;;;;;;;5.22;4.18;;;18.90;99.90;;;;;;5072586;28;20020;-73
2021/07/13 05:30:18;;;;;;;5.43;3.53;;;19.00;99.90;;;;;;5072449;28;20066;-73
2021/07/13 05:32:44;;;;;;;7.60;2.70;;;19.10;99.90;;;;;;5072355;28;20020;-74
2021/07/13 05:35:10;;;;;;;4.03;2.83;;;19.30;99.90;;;;;;5075525;28;20491;-74
2021/07/13 05:37:36;;;;;;;2.55;2.35;;;19.50;99.90;;;;;;5076226;28;20024;-73
2021/07/13 05:40:06;;;;;;;3.13;2.38;;;19.80;99.90;;;;;;5076529;28;20024;-72
2021/07/13 05:42:32;;;;;;;2.50;2.28;;;19.90;99.90;;;;;;5059836;28;20036;-74
2021/07/13 05:44:59;;;;;;;6.32;2.20;;;19.80;99.90;;;;;;5059308;28;20024;-73
2021/07/13 05:47:24;;;;;;;2.58;2.00;;;19.60;99.90;;;;;;5076899;28;20028;-72
2021/07/13 05:49:50;;;;;;;2.67;2.35;;;19.50;99.90;;;;;;5076707;28;20021;-74
2021/07/13 05:52:16;;;;;;;3.45;2.65;;;19.50;99.90;;;;;;5076808;28;20040;-72
2021/07/13 05:54:42;;;;;;;3.47;2.35;;;19.40;99.90;;;;;;5076546;28;20536;-72
2021/07/13 05:57:07;;;;;;;5.03;2.35;;;19.40;99.90;;;;;;5057772;28;20025;-73
2021/07/13 05:59:33;;;;;;;2.25;1.95;;;19.50;99.90;;;;;;5075335;28;20025;-73
2021/07/13 06:01:58;;;;;;;3.55;2.40;;;19.50;99.90;;;;;;5057749;28;20456;-73
2021/07/13 06:04:24;;;;;;;2.92;1.92;;;19.40;99.90;;;;;;5074373;28;20493;-73
2021/07/13 06:06:49;;;;;;;2.42;1.83;;;19.40;99.90;;;;;;5073789;28;20082;-73
2021/07/13 06:09:15;;;;;;;3.97;2.45;;;19.30;99.90;;;;;;5058066;28;20123;-73
2021/07/13 06:11:41;;;;;;;4.88;2.90;;;19.20;99.90;;;;;;5075477;28;20025;-72
2021/07/13 06:14:06;;;;;;;2.97;2.03;;;19.20;99.90;;;;;;5074055;28;20048;-73
2021/07/13 06:16:32;;;;;;;2.17;1.98;;;19.10;99.90;;;;;;5075465;28;20022;-73
2021/07/13 06:18:57;;;;;;;2.80;2.13;;;19.00;99.90;;;;;;5057609;28;20029;-73
2021/07/13 06:21:23;;;;;;;4.40;2.22;;;19.00;99.90;;;;;;5075359;28;20036;-73
2021/07/13 06:23:48;;;;;;;3.00;2.40;;;19.10;99.90;;;;;;5075277;28;20029;-72
2021/07/13 06:26:14;;;;;;;4.13;2.75;;;19.10;99.90;;;;;;5074559;28;20036;-73
2021/07/13 06:28:39;;;;;;;6.30;2.35;;;19.10;99.90;;;;;;5073318;28;20028;-73
2021/07/13 06:31:05;;;;;;;8.48;2.72;;;19.10;99.90;;;;;;5073330;28;20017;-73
2021/07/13 06:33:31;;;;;;;2.30;2.05;;;19.10;99.90;;;;;;5074689;28;20036;-73
2021/07/13 06:35:56;;;;;;;2.50;2.30;;;19.10;99.90;;;;;;5074498;28;20036;-74
2021/07/13 06:38:22;;;;;;;2.90;2.08;;;19.20;99.90;;;;;;5074785;28;20029;-73
2021/07/13 06:40:47;;;;;;;3.33;2.42;;;19.40;99.90;;;;;;5075861;28;20036;-73
2021/07/13 06:43:13;;;;;;;2.55;2.05;;;19.50;99.90;;;;;;5076562;28;20059;-73
2021/07/13 06:45:39;;;;;;;5.43;1.80;;;19.50;99.90;;;;;;5076535;28;20064;-73
2021/07/13 06:48:05;;;;;;;2.72;2.10;;;19.50;99.90;;;;;;5077514;28;20040;-72
2021/07/13 06:50:30;;;;;;;3.05;1.88;;;19.50;99.90;;;;;;5057405;28;20025;-72
2021/07/13 06:52:56;;;;;;;1.30;1.20;;;19.60;99.90;;;;;;5075502;28;20020;-73
2021/07/13 06:55:22;;;;;;;2.20;1.77;;;19.50;99.90;;;;;;5075314;28;20025;-73
2021/07/13 06:57:47;;;;;;;2.13;1.63;;;19.40;99.90;;;;;;5074140;28;20394;-73
2021/07/13 07:00:14;;;;;;;4.60;2.20;;;19.30;99.90;;;;;;5056556;28;20025;-73
2021/07/13 07:02:39;;;;;;;2.55;1.85;;;19.20;99.90;;;;;;5056552;28;20378;-73
2021/07/13 07:05:06;;;;;;;3.78;2.00;;;19.20;99.90;;;;;;5074006;28;20086;-73
2021/07/13 07:07:32;;;;;;;1.60;1.40;;;19.20;99.90;;;;;;5074696;28;20036;-73
2021/07/13 07:09:58;;;;;;;2.75;1.73;;;19.20;99.90;;;;;;5074810;28;20020;-73
2021/07/13 07:12:24;;;;;;;3.10;2.13;;;19.20;99.90;;;;;;5074859;28;20039;-73
2021/07/13 07:14:50;;;;;;;3.88;3.30;;;19.20;99.90;;;;;;5074401;28;20020;-73
2021/07/13 07:17:15;;;;;;;6.50;2.40;;;19.10;99.90;;;;;;5073224;28;20077;-73
2021/07/13 07:19:41;;;;;;;3.00;1.92;;;19.00;99.90;;;;;;5073896;28;20038;-73
2021/07/13 07:22:06;;;;;;;5.65;2.45;;;18.90;99.90;;;;;;5074756;28;20394;-73
2021/07/13 07:24:32;;;;;;;2.63;1.70;;;18.90;99.90;;;;;;5073572;28;20025;-73
2021/07/13 07:26:58;;;;;;;3.67;2.58;;;18.80;99.90;;;;;;5072091;28;20111;-73
2021/07/13 07:29:23;;;;;;;2.17;1.95;;;18.90;99.90;;;;;;5073673;28;20024;-73
2021/07/13 07:31:50;;;;;;;4.35;1.85;;;19.00;99.90;;;;;;5073586;28;20024;-73
2021/07/13 07:34:16;;;;;;;3.35;2.90;;;18.90;99.90;;;;;;5073909;28;20024;-74
2021/07/13 07:36:42;;;;;;;2.25;1.98;;;18.90;99.90;;;;;;5072395;28;20031;-73
2021/07/13 07:39:09;;;;;;;6.18;2.28;;;19.00;99.90;;;;;;5056301;28;20024;-73
2021/07/13 07:41:34;;;;;;;11.48;2.33;;;19.00;99.90;;;;;;5095555;28;20015;-73
2021/07/13 07:44:00;;;;;;;2.20;1.73;;;18.90;99.90;;;;;;5076437;28;20025;-72
2021/07/13 07:46:26;;;;;;;3.15;2.20;;;18.90;99.90;;;;;;5072625;28;20036;-72
2021/07/13 07:48:51;;;;;;;3.05;1.73;;;18.80;99.90;;;;;;5073943;28;20055;-72
2021/07/13 07:51:17;;;;;;;4.78;2.45;;;18.80;99.90;;;;;;5073792;28;20104;-72
2021/07/13 07:53:42;;;;;;;5.70;2.08;;;18.80;99.90;;;;;;5072634;28;20024;-72
2021/07/13 07:56:08;;;;;;;2.17;1.92;;;18.70;99.90;;;;;;5072443;28;20418;-73
2021/07/13 07:58:33;;;;;;;2.20;2.00;;;18.60;99.90;;;;;;5073114;28;20028;-72
2021/07/13 08:00:59;;;;;;;4.93;3.53;;;18.60;99.90;;;;;;5072938;28;20095;-72
2021/07/13 08:03:24;;;;;;;6.72;2.22;;;18.60;99.90;;;;;;5073154;28;20393;-74
2021/07/13 08:05:55;;;;;;;3.92;2.55;;;18.70;99.90;;;;;;5072789;28;20032;-72
2021/07/13 08:08:21;;;;;;;6.50;2.17;;;18.70;99.90;;;;;;5072945;28;20028;-72
2021/07/13 08:10:46;;;;;;;3.92;2.45;;;18.90;99.90;;;;;;5072772;28;20027;-71
2021/07/13 08:13:12;;;;;;;3.47;2.33;;;19.00;99.90;;;;;;5055483;28;20025;-72
2021/07/13 08:15:37;;;;;;;4.20;2.13;;;19.00;99.90;;;;;;5071977;28;20021;-72
2021/07/13 08:18:03;;;;;;;2.45;2.15;;;19.10;99.90;;;;;;5073582;28;20132;-73
2021/07/13 08:20:28;;;;;;;4.22;1.80;;;19.10;99.90;;;;;;5073453;28;20031;-72
2021/07/13 08:22:54;;;;;;;3.97;1.95;;;19.20;99.90;;;;;;5073529;28;20402;-72
2021/07/13 08:25:21;;;;;;;4.05;2.10;;;19.30;99.90;;;;;;5055000;28;20436;-73
2021/07/13 08:27:47;;;;;;;5.18;2.35;;;19.30;99.90;;;;;;5073262;28;20028;-72
2021/07/13 08:30:14;;;;;;;3.00;1.85;;;19.30;99.90;;;;;;5073198;28;20029;-73
2021/07/13 08:32:40;;;;;;;3.42;2.90;;;19.40;99.90;;;;;;5072461;28;20070;-73
2021/07/13 08:35:06;;;;;;;2.50;2.00;;;19.30;99.90;;;;;;5071389;28;20021;-72
2021/07/13 08:37:35;;;;;;;5.65;2.35;;;19.40;99.90;;;;;;5072713;28;20093;-73
2021/07/13 08:40:07;;;;;;;4.50;2.70;;;19.50;99.90;;;;;;5071277;28;20028;-72
2021/07/13 08:42:37;;;;;;;4.45;3.05;;;19.50;99.90;;;;;;5071648;28;20559;-73
2021/07/13 08:45:09;;;;;;;3.78;2.15;;;19.60;99.90;;;;;;5070951;28;20017;-72
2021/07/13 08:47:39;;;;;;;3.92;2.30;;;19.40;99.90;;;;;;5071145;28;20032;-72
2021/07/13 08:50:07;;;;;;;3.00;2.70;;;19.40;99.90;;;;;;5072572;28;20017;-73
2021/07/13 08:52:34;;;;;;;4.38;3.47;;;19.30;99.90;;;;;;5073028;28;20070;-72
2021/07/13 08:55:01;;;;;;;3.30;2.97;;;19.40;99.90;;;;;;5073593;28;20552;-72
2021/07/13 08:57:26;;;;;;;5.07;2.60;;;19.40;99.90;;;;;;5055859;28;20549;-74
2021/07/13 08:59:52;;;;;;;3.20;2.90;;;19.30;99.90;;;;;;5071385;28;20111;-74
2021/07/13 09:02:17;;;;;;;4.85;3.20;;;19.20;99.90;;;;;;5054797;28;20027;-73
2021/07/13 09:04:43;;;;;;;2.90;2.17;;;19.20;99.90;;;;;;5071780;28;20100;-73
2021/07/13 09:07:09;;;;;;;1.65;1.55;;;19.10;99.90;;;;;;5070940;28;20623;-73
2021/07/13 09:09:37;;;;;;;2.38;1.90;;;18.90;99.90;;;;;;5076775;28;20024;-73
2021/07/13 09:12:23;;;;;;;3.33;2.33;;;18.90;99.90;;;;;;5075584;28;20051;-74
2021/07/13 09:15:05;;;;;;;3.05;2.45;;;18.80;99.90;;;;;;5076296;28;20017;-74
2021/07/13 09:17:39;;;;;;;2.25;1.88;;;18.70;99.90;;;;;;5075039;28;20024;-73
2021/07/13 09:20:26;;;;;;;1.15;1.05;;;18.70;99.90;;;;;;5076457;28;20012;-73
2021/07/13 09:23:00;;;;;;;0.98;0.93;;;18.50;99.90;;;;;;5058905;28;20420;-73
2021/07/13 09:25:40;;;;;;;2.55;1.45;;;18.30;99.90;;;;;;5099130;28;20024;-72
2021/07/13 09:28:13;;;;;;;1.13;1.02;;;18.30;99.90;;;;;;5062515;28;20024;-73
2021/07/13 09:31:00;;;;;;;1.17;1.00;;;18.20;99.90;;;;;;5079435;28;20021;-72
2021/07/13 09:33:28;;;;;;;1.33;0.82;;;18.20;99.90;;;;;;5078205;28;20056;-73
2021/07/13 09:36:00;;;;;;;0.60;0.60;;;18.10;99.90;;;;;;5062605;28;20151;-73
2021/07/13 09:38:26;;;;;;;0.50;0.50;;;18.00;99.90;;;;;;5078018;28;20020;-73
2021/07/13 09:41:17;;;;;;;0.77;0.50;;;18.00;99.90;;;;;;5075381;28;20033;-72
2021/07/13 09:43:47;;;;;;;0.22;0.22;;;17.80;99.90;;;;;;5076084;28;20025;-73
2021/07/13 09:46:28;;;;;;;1.38;0.47;;;17.70;99.90;;;;;;5062739;28;20035;-74
2021/07/13 09:49:12;;;;;;;1.08;0.47;;;17.60;99.90;;;;;;5098238;22;20524;-76
2021/07/13 09:51:40;;;;;;;0.30;0.30;;;17.60;99.90;;;;;;5075004;28;20027;-76
2021/07/13 09:54:41;;;;;;;1.15;0.38;;;17.60;99.90;;;;;;5057548;28;20025;-77
2021/07/13 09:57:08;;;;;;;3.63;0.40;;;17.70;99.90;;;;;;5074913;28;20025;-77
2021/07/13 09:59:34;;;;;;;0.45;0.20;;;17.60;99.90;;;;;;5057252;28;20086;-76
2021/07/13 10:02:03;;;;;;;0.32;0.20;;;17.60;99.90;;;;;;5075058;28;20024;-76
2021/07/13 10:04:30;;;;;;;19.90;1.33;;;17.50;99.90;;;;;;5057346;28;20111;-77
2021/07/13 10:07:00;;;;;;;0.52;0.50;;;17.60;99.90;;;;;;5075807;28;20040;-76
2021/07/13 10:09:30;;;;;;;35.40;1.55;;;17.70;99.90;;;;;;5075201;28;20024;-77
2021/07/13 10:11:56;;;;;;;1.25;0.30;;;17.70;99.90;;;;;;5074463;28;20025;-76
2021/07/13 10:14:22;;;;;;;270.50;16.52;;;17.60;99.90;;;;;;5074786;28;20080;-76
2021/07/13 10:16:49;;;;;;;0.82;0.15;;;17.60;99.90;;;;;;5073184;28;20043;-76
2021/07/13 10:19:14;;;;;;;0.47;0.30;;;17.60;99.90;;;;;;5055746;28;20108;-76
2021/07/13 10:21:42;;;;;;;0.35;0.20;;;17.60;99.90;;;;;;5074887;28;20056;-76
2021/07/13 10:24:07;;;;;;;1.13;0.30;;;17.50;99.90;;;;;;5074766;28;20029;-77
2021/07/13 10:26:44;;;;;;;0.17;0.10;;;17.50;99.90;;;;;;5056551;28;20116;-77
2021/07/13 10:29:36;;;;;;;0.30;0.20;;;17.40;99.90;;;;;;5074527;28;20027;-78
2021/07/13 10:32:24;;;;;;;0.70;0.30;;;17.60;99.90;;;;;;5074492;28;20432;-77
2021/07/13 10:34:55;;;;;;;4.55;0.55;;;17.60;99.90;;;;;;5063509;28;20397;-77
2021/07/13 10:37:30;;;;;;;129.70;14.13;;;17.70;99.90;;;;;;5072962;28;20032;-76
2021/07/13 10:40:03;;;;;;;39.50;2.92;;;17.90;99.90;;;;;;5074446;28;20070;-78
2021/07/13 10:42:41;;;;;;;3.67;0.65;;;18.30;99.90;;;;;;5072939;28;20028;-79
2021/07/13 10:45:19;;;;;;;3.85;0.65;;;18.10;99.90;;;;;;5056142;28;20035;-77
2021/07/13 10:48:03;;;;;;;0.45;0.40;;;18.10;99.90;;;;;;5074384;28;20039;-76
2021/07/13 10:50:28;;;;;;;0.55;0.30;;;17.90;99.90;;;;;;5057117;28;20059;-77
2021/07/13 10:53:05;;;;;;;4.53;0.60;;;17.70;99.90;;;;;;5074837;28;20025;-77
2021/07/13 10:55:31;;;;;;;0.95;0.40;;;17.70;99.90;;;;;;5056281;28;20021;-76
2021/07/13 10:58:12;;;;;;;0.65;0.50;;;17.70;99.90;;;;;;5056458;28;20036;-76
2021/07/13 11:00:47;;;;;;;0.40;0.38;;;17.60;99.90;;;;;;5074800;28;20013;-76
2021/07/13 11:03:31;;;;;;;1.98;0.50;;;17.60;99.90;;;;;;5056153;28;20024;-77
2021/07/13 11:06:07;;;;;;;0.47;0.30;;;17.60;99.90;;;;;;5074018;28;20035;-76
2021/07/13 11:08:41;;;;;;;1.08;0.30;;;17.50;99.90;;;;;;5073966;28;20020;-76
2021/07/13 11:11:10;;;;;;;1.20;0.50;;;17.60;99.90;;;;;;5074084;28;20533;-77
2021/07/13 11:13:36;;;;;;;1.05;0.40;;;17.80;99.90;;;;;;5074038;28;20107;-76
2021/07/13 11:16:03;;;;;;;1.23;0.30;;;18.20;99.90;;;;;;5073864;28;20020;-76
2021/07/13 11:18:31;;;;;;;0.25;0.20;;;18.30;99.90;;;;;;5073685;28;20158;-78
2021/07/13 11:21:15;;;;;;;0.52;0.30;;;18.30;99.90;;;;;;5073615;28;20025;-78
2021/07/13 11:23:41;;;;;;;2.78;0.40;;;18.40;99.90;;;;;;5073492;28;20073;-77
2021/07/13 11:26:08;;;;;;;2.13;0.50;;;18.40;99.90;;;;;;5073753;28;20028;-77
2021/07/13 11:28:35;;;;;;;0.75;0.38;;;18.40;99.90;;;;;;5072330;28;20029;-76
2021/07/13 11:31:02;;;;;;;6.07;0.68;;;18.40;99.90;;;;;;5073163;28;20028;-76
2021/07/13 11:33:28;;;;;;;0.80;0.40;;;18.30;99.90;;;;;;5072164;28;20041;-77
2021/07/13 11:35:57;;;;;;;1.30;0.50;;;18.30;99.90;;;;;;5071852;28;20028;-76
2021/07/13 11:38:26;;;;;;;0.60;0.60;;;18.20;99.90;;;;;;5073098;28;20504;-76
2021/07/13 11:41:14;;;;;;;0.50;0.30;;;18.10;99.90;;;;;;5073442;28;20062;-77
2021/07/13 11:43:40;;;;;;;0.93;0.50;;;18.00;99.90;;;;;;5073227;28;20035;-77
2021/07/13 11:46:14;;;;;;;0.88;0.52;;;17.90;99.90;;;;;;5073349;28;20025;-76
2021/07/13 11:48:40;;;;;;;1.13;0.50;;;17.90;99.90;;;;;;5055142;28;20402;-77
2021/07/13 11:51:09;;;;;;;2.10;0.60;;;17.90;99.90;;;;;;5073077;28;20024;-77
2021/07/13 11:53:35;;;;;;;19.05;1.50;;;17.80;99.90;;;;;;5055319;28;20021;-77
2021/07/13 11:56:02;;;;;;;0.43;0.30;;;17.80;99.90;;;;;;5071478;28;20474;-76
2021/07/13 11:58:30;;;;;;;107.68;10.85;;;17.80;99.90;;;;;;5071788;28;20554;-78
2021/07/13 12:01:15;;;;;;;46.67;5.15;;;17.90;99.90;;;;;;5073044;28;20111;-77
2021/07/13 12:03:41;;;;;;;3.70;0.73;;;17.90;99.90;;;;;;5072975;28;20031;-77
2021/07/13 12:06:16;;;;;;;0.77;0.40;;;18.00;99.90;;;;;;5072579;28;20029;-77
2021/07/13 12:08:42;;;;;;;3.10;0.80;;;17.90;99.90;;;;;;5054511;28;20020;-76
2021/07/13 12:11:09;;;;;;;2.03;0.52;;;18.00;99.90;;;;;;5072819;28;20059;-77
2021/07/13 12:13:37;;;;;;;0.55;0.40;;;18.10;99.90;;;;;;5072688;28;20486;-76
2021/07/13 12:16:24;;;;;;;2.88;0.50;;;18.30;99.90;;;;;;5071371;28;20086;-75
2021/07/13 12:18:51;;;;;;;0.45;0.30;;;18.40;99.90;;;;;;5071334;28;20028;-75
2021/07/13 12:21:18;;;;;;;5.22;0.55;;;18.50;99.90;;;;;;5071020;28;20115;-76
2021/07/13 12:23:45;;;;;;;7.47;0.98;;;18.60;99.90;;;;;;5071353;28;20070;-76
2021/07/13 12:26:34;;;;;;;13.02;1.67;;;18.60;99.90;;;;;;5054430;28;20555;-77
2021/07/13 12:29:16;;;;;;;10.02;1.42;;;18.80;99.90;;;;;;5072408;28;20051;-76
2021/07/13 12:31:44;;;;;;;7.60;1.67;;;19.00;99.90;;;;;;5072313;28;20047;-77
2021/07/13 12:34:22;;;;;;;2.42;0.60;;;19.00;99.90;;;;;;5072527;28;20103;-77
2021/07/13 12:37:02;;;;;;;2.15;0.40;;;19.10;99.90;;;;;;5072234;28;20029;-76
2021/07/13 12:39:27;;;;;;;1.90;0.30;;;19.00;99.90;;;;;;5072116;28;20063;-76
2021/07/13 12:42:02;;;;;;;0.82;0.30;;;18.90;99.90;;;;;;5071897;28;20024;-77
2021/07/13 12:44:32;;;;;;;12.52;4.32;;;18.80;99.90;;;;;;5072254;28;20075;-76
2021/07/13 12:47:26;;;;;;;0.40;0.40;;;18.90;99.90;;;;;;5071949;28;20043;-76
2021/07/13 12:50:18;;;;;;;0.80;0.38;;;18.90;99.90;;;;;;5054226;28;20025;-76
2021/07/13 12:52:59;;;;;;;1.15;0.60;;;18.80;99.90;;;;;;5069754;28;20036;-75
2021/07/13 12:55:31;;;;;;;0.95;0.50;;;18.80;99.90;;;;;;5055583;28;20424;-76